Time;durP1;ratioP1;P1;durP2;ratioP2;P2;SDS_P1;SDS_P2;PMS_P1;PMS_P2;Temp;Humidity;BMP_temperature;BMP_pressure;BME280_temperature;BME280_humidity;BME280_pressure;Samples;Min_cycle;Max_cycle;Signal;HPM_P1;HPM_P2
2021/07/23 00:00:12;;;;;;;13.62;8.50;;;;;;;16.91;82.28;100517.17;2664161;89;21042;-68
2021/07/23 00:04:15;;;;;;;11.40;8.77;;;;;;;16.92;82.29;100520.20;2662828;89;21531;-67
2021/07/23 00:08:17;;;;;;;16.23;10.40;;;;;;;16.92;82.76;100514.83;2664285;89;21046;-67
2021/07/23 00:12:18;;;;;;;24.72;11.35;;;;;;;16.65;84.24;100519.91;2660225;89;21204;-68
2021/07/23 00:16:22;;;;;;;17.92;12.73;;;;;;;16.40;85.39;100511.20;2663926;89;21005;-68
2021/07/23 00:20:25;;;;;;;19.37;12.68;;;;;;;16.30;86.35;100514.48;2663979;89;21066;-69
2021/07/23 00:24:35;;;;;;;17.30;11.00;;;;;;;16.24;87.08;100505.72;2659669;89;21038;-69
2021/07/23 00:28:37;;;;;;;18.07;13.35;;;;;;;16.28;87.28;100509.29;2660209;89;21014;-70
2021/07/23 00:32:40;;;;;;;14.87;10.58;;;;;;;16.36;87.00;100510.33;2664052;89;21015;-68
2021/07/23 00:36:42;;;;;;;16.52;9.60;;;;;;;16.45;87.07;100507.19;2664335;89;21025;-68
2021/07/23 00:40:44;;;;;;;16.95;10.35;;;;;;;16.59;86.56;100505.75;2663723;89;20991;-68
2021/07/23 00:44:46;;;;;;;15.63;10.63;;;;;;;16.69;85.64;100505.97;2664475;89;21026;-69
2021/07/23 00:48:47;;;;;;;16.12;9.43;;;;;;;16.75;85.01;100499.64;2664100;89;21022;-68
2021/07/23 00:52:50;;;;;;;11.38;9.25;;;;;;;16.73;84.80;100502.99;2662972;89;21658;-68
2021/07/23 00:56:51;;;;;;;18.07;9.33;;;;;;;16.72;84.51;100506.68;2664185;89;21058;-69
2021/07/23 01:00:57;;;;;;;13.53;9.23;;;;;;;16.59;84.00;100502.58;2664340;89;21027;-67
2021/07/23 01:04:59;;;;;;;14.73;9.90;;;;;;;16.53;84.06;100497.34;2664112;89;21062;-69
2021/07/23 01:09:01;;;;;;;15.00;8.73;;;;;;;16.54;84.24;100499.02;2663752;89;21006;-68
2021/07/23 01:13:04;;;;;;;17.20;9.68;;;;;;;16.63;84.07;100495.88;2663847;89;21099;-69
2021/07/23 01:17:06;;;;;;;16.57;10.00;;;;;;;16.64;83.86;100498.91;2663939;89;21049;-69
2021/07/23 01:21:10;;;;;;;14.95;8.80;;;;;;;16.71;83.90;100496.42;2663873;88;21635;-69
2021/07/23 01:25:14;;;;;;;21.37;9.13;;;;;;;16.72;83.23;100498.11;2664259;89;21045;-69
2021/07/23 01:29:15;;;;;;;17.02;10.48;;;;;;;16.67;83.21;100499.92;2664581;89;21519;-68
2021/07/23 01:33:17;;;;;;;13.05;9.10;;;;;;;16.69;83.59;100498.43;2664219;89;20998;-68
2021/07/23 01:37:20;;;;;;;12.28;9.88;;;;;;;16.78;83.78;100496.62;2664053;89;21062;-70
2021/07/23 01:41:23;;;;;;;14.05;8.75;;;;;;;16.79;83.56;100495.10;2662232;89;21010;-68
2021/07/23 01:45:25;;;;;;;14.23;8.30;;;;;;;16.83;83.20;100499.66;2661589;89;21058;-69
2021/07/23 01:49:27;;;;;;;16.10;9.35;;;;;;;16.81;83.15;100497.16;2664319;89;21049;-69
2021/07/23 01:53:29;;;;;;;14.13;9.10;;;;;;;16.79;83.32;100498.30;2664318;89;21002;-69
2021/07/23 01:57:31;;;;;;;13.78;9.10;;;;;;;16.77;83.39;100496.28;2664276;89;21061;-70
2021/07/23 02:01:33;;;;;;;12.73;7.37;;;;;;;16.72;83.87;100499.45;2664012;89;21034;-69
2021/07/23 02:05:36;;;;;;;21.27;9.90;;;;;;;16.65;84.18;100497.08;2664333;89;21037;-69
2021/07/23 02:09:38;;;;;;;17.48;8.23;;;;;;;16.61;84.86;100495.20;2664241;89;21034;-68
2021/07/23 02:13:39;;;;;;;13.30;8.78;;;;;;;16.60;85.26;100495.34;2664490;89;21012;-69
2021/07/23 02:17:41;;;;;;;10.18;8.30;;;;;;;16.64;85.55;100494.05;2664195;89;21010;-70
2021/07/23 02:21:44;;;;;;;9.88;8.20;;;;;;;16.64;85.55;100497.56;2664020;88;21105;-70
2021/07/23 02:25:45;;;;;;;13.20;9.38;;;;;;;16.69;86.04;100498.43;2664064;89;21058;-68
2021/07/23 02:29:47;;;;;;;13.05;9.10;;;;;;;16.73;86.06;100497.62;2664196;89;21021;-69
2021/07/23 02:33:48;;;;;;;14.80;8.63;;;;;;;16.79;85.46;100498.30;2664032;89;21550;-68
2021/07/23 02:37:50;;;;;;;16.85;8.95;;;;;;;16.70;85.12;100495.59;2664338;89;21010;-70
2021/07/23 02:41:54;;;;;;;12.73;8.13;;;;;;;16.62;85.66;100492.03;2664371;89;21037;-68
2021/07/23 02:45:56;;;;;;;16.82;7.92;;;;;;;16.49;85.83;100488.41;2663136;89;21086;-70
2021/07/23 02:49:57;;;;;;;11.20;7.78;;;;;;;16.46;86.91;100482.03;2664358;89;21061;-70
2021/07/23 02:53:59;;;;;;;20.32;8.00;;;;;;;16.59;86.60;100481.09;2663877;89;21089;-68
2021/07/23 02:58:01;;;;;;;12.50;8.63;;;;;;;16.63;85.40;100482.97;2664037;89;21026;-68
2021/07/23 03:02:04;;;;;;;18.17;8.78;;;;;;;16.54;85.16;100475.38;2664203;89;21026;-69
2021/07/23 03:06:06;;;;;;;14.53;7.78;;;;;;;16.48;85.61;100477.34;2663644;89;20979;-67
2021/07/23 03:10:10;;;;;;;9.60;7.20;;;;;;;16.42;85.52;100470.27;2664338;89;21098;-68
2021/07/23 03:14:11;;;;;;;15.23;7.62;;;;;;;16.34;85.83;100472.92;2664233;89;21046;-68
2021/07/23 03:18:15;;;;;;;14.00;7.97;;;;;;;16.36;86.76;100471.41;2664093;89;21026;-68
2021/07/23 03:22:17;;;;;;;14.55;7.55;;;;;;;16.53;86.83;100462.95;2663595;89;21699;-69
2021/07/23 03:26:19;;;;;;;16.55;6.85;;;;;;;16.56;85.98;100463.97;2664107;89;21014;-70
2021/07/23 03:30:21;;;;;;;13.32;8.38;;;;;;;16.48;86.00;100459.89;2664184;89;21019;-68
2021/07/23 03:34:23;;;;;;;16.77;8.73;;;;;;;16.32;87.03;100465.53;2663852;89;21069;-68
2021/07/23 03:38:24;;;;;;;15.68;9.38;;;;;;;16.27;88.11;100459.78;2664171;89;21034;-69
2021/07/23 03:42:26;;;;;;;14.07;9.10;;;;;;;16.33;88.87;100455.14;2664075;89;21009;-70
2021/07/23 03:46:28;;;;;;;11.85;8.25;;;;;;;16.37;89.11;100463.20;2660007;89;21070;-68
2021/07/23 03:50:30;;;;;;;18.87;8.45;;;;;;;16.38;89.44;100462.69;2664124;89;21058;-69
2021/07/23 03:54:33;;;;;;;18.32;8.85;;;;;;;16.33;89.91;100459.16;2664117;89;21010;-68
2021/07/23 03:58:36;;;;;;;16.02;10.38;;;;;;;16.42;90.94;100456.02;2664047;89;21002;-68
2021/07/23 04:02:39;;;;;;;14.93;8.83;;;;;;;16.58;90.82;100457.08;2662497;89;21069;-69
2021/07/23 04:06:41;;;;;;;19.10;10.05;;;;;;;16.67;90.17;100450.75;2664019;89;21081;-69
2021/07/23 04:10:43;;;;;;;13.72;9.18;;;;;;;16.69;90.44;100448.74;2664187;89;21037;-68
2021/07/23 04:14:45;;;;;;;17.12;9.25;;;;;;;16.78;91.48;100445.59;2663639;89;21046;-70
2021/07/23 04:18:47;;;;;;;16.57;9.75;;;;;;;17.07;91.55;100443.85;2664115;89;21042;-69
2021/07/23 04:22:48;;;;;;;15.60;10.38;;;;;;;17.36;92.07;100441.72;2679174;88;21422;-70
2021/07/23 04:26:50;;;;;;;15.90;11.12;;;;;;;18.13;95.56;100448.09;2683536;88;21047;-69
2021/07/23 04:30:52;;;;;;;17.02;11.43;;;;;;;19.36;96.14;100437.42;2683767;88;21049;-68
2021/07/23 04:34:53;;;;;;;11.18;9.75;;;;;;;20.56;92.29;100440.32;2683734;88;21085;-69
2021/07/23 04:38:55;;;;;;;19.35;11.93;;;;;;;21.62;85.96;100438.16;2684701;88;21037;-69
2021/07/23 04:42:57;;;;;;;15.20;10.53;;;;;;;22.55;82.61;100437.13;2684714;88;21033;-69
2021/07/23 04:47:00;;;;;;;50.48;14.00;;;;;;;23.06;78.38;100434.49;2684260;88;21359;-70
2021/07/23 04:51:05;;;;;;;14.93;9.05;;;;;;;23.44;77.66;100433.14;2685166;88;20998;-67
2021/07/23 04:55:09;;;;;;;10.58;8.90;;;;;;;23.41;73.28;100433.55;2662256;89;21044;-68
2021/07/23 04:59:11;;;;;;;11.68;8.93;;;;;;;23.03;72.14;100439.52;2663009;89;21050;-70
2021/07/23 05:03:13;;;;;;;12.30;9.55;;;;;;;22.62;73.06;100432.59;2662421;89;21088;-69
2021/07/23 05:07:15;;;;;;;27.90;9.85;;;;;;;22.56;74.59;100428.50;2663038;89;21086;-68
2021/07/23 05:11:18;;;;;;;14.50;10.10;;;;;;;22.63;74.57;100430.20;2662699;89;21546;-69
2021/07/23 05:15:27;;;;;;;11.60;9.03;;;;;;;22.74;73.38;100427.42;2662552;89;21385;-69
2021/07/23 05:19:29;;;;;;;12.90;9.13;;;;;;;22.77;73.08;100424.30;2663201;89;21094;-69
2021/07/23 05:23:32;;;;;;;11.53;9.03;;;;;;;22.76;73.53;100422.63;2647258;89;21503;-70
2021/07/23 05:27:35;;;;;;;14.75;9.28;;;;;;;22.52;73.41;100425.34;2651268;89;21015;-71
2021/07/23 05:31:39;;;;;;;12.60;7.90;;;;;;;22.42;74.68;100421.62;2651485;89;20971;-70
2021/07/23 05:35:41;;;;;;;10.75;8.78;;;;;;;22.48;74.98;100426.25;2644306;89;21026;-69
2021/07/23 05:39:43;;;;;;;13.93;8.78;;;;;;;22.32;75.17;100426.05;2651124;89;21046;-70
2021/07/23 05:43:45;;;;;;;12.90;9.10;;;;;;;22.28;75.23;100423.43;2642740;89;21030;-67
2021/07/23 05:47:47;;;;;;;17.00;8.93;;;;;;;22.18;76.06;100419.73;2647768;89;21058;-67
2021/07/23 05:51:48;;;;;;;12.73;9.45;;;;;;;22.25;77.02;100425.19;2651751;89;21054;-69
2021/07/23 05:55:50;;;;;;;13.22;9.68;;;;;;;22.51;76.11;100420.96;2651318;89;21022;-68
2021/07/23 05:59:52;;;;;;;14.33;8.05;;;;;;;22.74;74.70;100422.00;2651409;89;20979;-72
2021/07/23 06:03:53;;;;;;;11.85;9.05;;;;;;;22.83;74.22;100426.19;2651318;89;21562;-69
2021/07/23 06:07:55;;;;;;;12.47;7.87;;;;;;;22.90;75.07;100428.92;2651551;89;21169;-67
2021/07/23 06:11:58;;;;;;;15.40;8.90;;;;;;;23.10;74.04;100422.21;2648051;89;23374;-69
2021/07/23 06:16:07;;;;;;;10.55;8.70;;;;;;;23.39;73.56;100416.65;2648861;89;21022;-67
2021/07/23 06:20:11;;;;;;;10.38;7.45;;;;;;;23.65;72.53;100412.26;2651170;89;21054;-69
2021/07/23 06:24:14;;;;;;;11.53;7.53;;;;;;;23.91;71.78;100411.40;2655852;89;20975;-68
2021/07/23 06:28:16;;;;;;;8.58;7.10;;;;;;;24.04;69.98;100406.49;2655741;89;21042;-69
2021/07/23 06:32:17;;;;;;;9.88;7.37;;;;;;;24.12;69.17;100400.50;2655716;89;21073;-67
2021/07/23 06:36:24;;;;;;;9.33;5.70;;;;;;;24.05;69.29;100404.09;2656003;89;21030;-68
2021/07/23 06:40:26;;;;;;;12.63;7.25;;;;;;;24.17;69.13;100408.84;2656035;89;21038;-68
2021/07/23 06:44:30;;;;;;;27.70;9.68;;;;;;;24.31;68.83;100409.66;2656379;89;21015;-68
2021/07/23 06:48:32;;;;;;;16.82;9.18;;;;;;;24.56;68.48;100404.86;2656224;89;21078;-68
2021/07/23 06:52:34;;;;;;;13.08;8.68;;;;;;;24.91;68.09;100405.88;2656422;89;21030;-69
2021/07/23 06:56:36;;;;;;;13.43;8.60;;;;;;;25.31;67.53;100397.95;2656276;89;21015;-69
2021/07/23 07:00:38;;;;;;;12.68;8.40;;;;;;;25.78;66.77;100399.79;2656804;89;21066;-68
2021/07/23 07:04:42;;;;;;;12.53;8.53;;;;;;;26.18;65.09;100401.83;2656752;89;21122;-69
2021/07/23 07:08:43;;;;;;;12.73;7.65;;;;;;;26.40;61.82;100394.55;2654659;89;21027;-70
2021/07/23 07:12:45;;;;;;;9.50;7.17;;;;;;;26.32;61.30;100394.31;2656966;89;21520;-71
2021/07/23 07:16:48;;;;;;;9.43;6.65;;;;;;;26.34;60.66;100401.22;2656580;89;20995;-69
2021/07/23 07:20:50;;;;;;;9.28;6.30;;;;;;;26.35;60.50;100394.70;2657093;89;21081;-67
2021/07/23 07:24:53;;;;;;;7.53;5.65;;;;;;;26.65;60.94;100399.34;2657255;89;21007;-68
2021/07/23 07:28:55;;;;;;;10.58;7.50;;;;;;;27.22;56.68;100406.33;2657652;89;21050;-67
2021/07/23 07:32:58;;;;;;;6.92;5.05;;;;;;;27.73;57.28;100390.93;2658044;89;20987;-70
2021/07/23 07:37:01;;;;;;;4.92;4.33;;;;;;;28.27;55.16;100389.92;2658336;89;21604;-68
2021/07/23 07:41:03;;;;;;;8.18;4.72;;;;;;;28.79;53.79;100389.56;2658611;89;20986;-66
2021/07/23 07:45:06;;;;;;;4.95;4.45;;;;;;;28.96;51.48;100384.70;2637211;89;21022;-68
2021/07/23 07:49:07;;;;;;;4.55;3.72;;;;;;;29.39;51.02;100379.13;2658822;89;21031;-66
2021/07/23 07:53:12;;;;;;;5.10;3.90;;;;;;;29.71;47.20;100372.22;2658323;89;21078;-68
2021/07/23 07:57:13;;;;;;;7.03;4.17;;;;;;;29.84;47.43;100373.77;2658889;89;21019;-68
2021/07/23 08:01:15;;;;;;;7.85;4.87;;;;;;;29.76;47.84;100367.66;2658812;89;20960;-66
2021/07/23 08:05:18;;;;;;;8.58;4.85;;;;;;;29.63;45.99;100363.89;2658723;89;21496;-66
2021/07/23 08:09:21;;;;;;;5.60;4.28;;;;;;;29.66;45.87;100363.94;2657945;89;21070;-66
2021/07/23 08:13:26;;;;;;;5.83;4.22;;;;;;;30.18;44.81;100361.37;2658596;89;21073;-64
2021/07/23 08:17:29;;;;;;;7.78;5.30;;;;;;;30.18;44.81;100361.37;2657079;89;21082;-66
2021/07/23 08:21:33;;;;;;;7.05;5.00;;;;;;;30.23;45.43;100361.42;2658361;89;21066;-63
2021/07/23 08:25:36;;;;;;;7.63;5.70;;;;;;;30.37;43.98;100357.77;2665885;89;21026;-64
2021/07/23 08:29:38;;;;;;;10.20;5.72;;;;;;;30.09;45.41;100359.61;2664198;89;21018;-65
2021/07/23 08:33:42;;;;;;;7.25;5.47;;;;;;;29.72;47.37;100354.17;2664399;89;21761;-66
2021/07/23 08:37:43;;;;;;;9.38;6.70;;;;;;;29.85;45.47;100354.34;2662355;89;21051;-63
2021/07/23 08:41:45;;;;;;;10.75;4.80;;;;;;;30.09;45.04;100352.75;2688216;87;21138;-65
2021/07/23 08:46:00;;;;;;;8.10;5.70;;;;;;;30.10;45.03;100352.23;2688572;88;21521;-64
2021/07/23 08:50:05;;;;;;;6.92;5.17;;;;;;;29.65;44.11;100350.77;2644005;90;21028;-65
2021/07/23 08:54:19;;;;;;;10.10;6.22;;;;;;;29.54;45.65;100348.97;2689352;88;21050;-63
2021/07/23 08:58:21;;;;;;;8.23;5.53;;;;;;;29.64;45.00;100344.99;2644798;90;21121;-64
2021/07/23 09:02:22;;;;;;;8.58;7.20;;;;;;;29.65;46.03;100342.54;2689001;88;21078;-63
2021/07/23 09:06:25;;;;;;;6.80;5.50;;;;;;;29.53;46.35;100324.02;2718977;87;21030;-64
2021/07/23 09:10:31;;;;;;;13.93;6.72;;;;;;;29.53;46.35;100324.02;2673078;89;21043;-64
2021/07/23 09:14:34;;;;;;;7.85;6.22;;;;;;;29.62;45.59;100346.63;2718321;87;21022;-64
2021/07/23 09:18:41;;;;;;;8.58;6.65;;;;;;;29.64;46.03;100341.73;2670336;89;21061;-65
2021/07/23 09:23:06;;;;;;;7.87;6.40;;;;;;;29.71;44.95;100328.37;2698627;88;21072;-67
2021/07/23 09:27:09;;;;;;;9.70;6.85;;;;;;;29.71;45.35;100331.95;2685563;88;21088;-66
2021/07/23 09:31:28;;;;;;;9.15;6.83;;;;;;;29.92;45.67;100321.27;2686234;88;21028;-66
2021/07/23 09:35:35;;;;;;;8.28;6.17;;;;;;;29.99;45.80;100331.48;2685742;88;21116;-68
2021/07/23 09:39:40;;;;;;;10.75;6.17;;;;;;;29.76;45.60;100307.34;2686528;88;21089;-68
2021/07/23 09:43:58;;;;;;;9.20;6.12;;;;;;;29.76;45.60;100307.34;2686395;88;21540;-66
2021/07/23 09:48:11;;;;;;;9.70;6.87;;;;;;;29.62;44.28;100328.82;2683741;87;21057;-66
2021/07/23 09:52:15;;;;;;;9.65;7.45;;;;;;;29.33;44.69;100324.79;2685797;88;21513;-68
2021/07/23 09:56:18;;;;;;;9.93;7.10;;;;;;;28.99;46.09;100317.98;2685886;88;21077;-68
2021/07/23 10:00:23;;;;;;;12.88;8.33;;;;;;;28.44;46.42;100327.09;2686179;88;21537;-65
2021/07/23 10:04:55;;;;;;;10.78;7.00;;;;;;;28.03;47.74;100314.77;2678112;87;21090;-66
2021/07/23 10:09:00;;;;;;;13.48;8.50;;;;;;;27.90;46.53;100323.22;2672659;89;21115;-65
2021/07/23 10:13:03;;;;;;;13.78;9.48;;;;;;;27.89;46.80;100317.47;2675421;88;21077;-66
2021/07/23 10:17:08;;;;;;;11.40;7.50;;;;;;;27.76;47.94;100319.41;2677077;89;21021;-65
2021/07/23 10:21:09;;;;;;;12.50;7.92;;;;;;;27.68;48.90;100314.84;2703833;87;21079;-66
2021/07/23 10:25:13;;;;;;;8.95;7.75;;;;;;;27.71;47.29;100315.72;2737483;86;21070;-66
2021/07/23 10:29:37;;;;;;;10.55;6.78;;;;;;;27.94;48.82;100310.20;2738835;87;21035;-65
2021/07/23 10:33:59;;;;;;;10.60;8.10;;;;;;;28.34;50.63;100310.47;2738769;86;21023;-66
2021/07/23 10:38:03;;;;;;;77.37;27.60;;;;;;;28.77;48.95;100309.62;2698349;88;21110;-65
2021/07/23 10:42:19;;;;;;;13.93;8.33;;;;;;;29.10;45.72;100304.44;2723304;87;21576;-65
2021/07/23 10:46:46;;;;;;;19.48;10.25;;;;;;;29.39;45.13;100296.12;2677229;89;21364;-64
2021/07/23 10:50:48;;;;;;;11.65;8.68;;;;;;;29.40;44.73;100283.53;2711845;87;21066;-65
2021/07/23 10:55:16;;;;;;;11.68;8.53;;;;;;;29.52;43.35;100285.38;2738582;87;21119;-65
2021/07/23 10:59:48;;;;;;;8.75;7.15;;;;;;;29.61;44.33;100281.10;2698064;88;21058;-64
2021/07/23 11:03:58;;;;;;;10.03;7.50;;;;;;;29.44;44.46;100279.23;2671545;89;21079;-64
2021/07/23 11:07:57;;;;;;;11.40;8.85;;;;;;;29.35;43.29;100276.06;2745388;86;21045;-64
2021/07/23 11:12:20;;;;;;;10.23;7.10;;;;;;;29.40;42.81;100274.50;2746529;86;21051;-63
2021/07/23 11:16:27;;;;;;;8.58;7.72;;;;;;;29.39;44.03;100272.28;2745799;86;21070;-65
2021/07/23 11:20:39;;;;;;;11.40;8.53;;;;;;;29.27;47.62;100267.44;2745485;86;21079;-65
2021/07/23 11:24:42;;;;;;;25.08;11.78;;;;;;;28.96;46.82;100266.98;2737595;86;21094;-64
2021/07/23 11:28:50;;;;;;;11.97;8.35;;;;;;;28.74;46.32;100264.41;2734347;87;21032;-64
2021/07/23 11:32:56;;;;;;;10.48;7.53;;;;;;;28.54;46.08;100272.27;2733902;86;21008;-64
2021/07/23 11:36:58;;;;;;;9.38;8.20;;;;;;;28.51;44.71;100268.13;2734150;87;21027;-64
2021/07/23 11:41:06;;;;;;;13.65;8.43;;;;;;;28.90;43.95;100263.33;2734864;87;21019;-64
2021/07/23 11:45:12;;;;;;;26.40;11.65;;;;;;;29.27;44.13;100257.85;2734591;87;21043;-65
2021/07/23 11:49:14;;;;;;;14.73;9.08;;;;;;;29.38;44.21;100227.33;2734528;87;21020;-64
2021/07/23 11:53:16;;;;;;;12.18;8.00;;;;;;;29.38;44.21;100227.33;2735206;87;21051;-64
2021/07/23 11:57:20;;;;;;;11.10;8.40;;;;;;;29.63;42.99;100255.64;2735374;86;21040;-63
2021/07/23 12:01:26;;;;;;;10.28;7.35;;;;;;;29.71;42.43;100242.88;2735571;87;21043;-64
2021/07/23 12:05:26;;;;;;;13.32;8.83;;;;;;;29.74;42.24;100241.00;2735123;86;21067;-62
2021/07/23 12:09:28;;;;;;;13.18;9.08;;;;;;;29.57;43.16;100242.97;2735885;87;20988;-62
2021/07/23 12:13:30;;;;;;;8.98;7.33;;;;;;;29.45;42.58;100238.98;2736595;87;21083;-64
2021/07/23 12:17:36;;;;;;;10.28;8.25;;;;;;;29.40;43.47;100234.78;2736415;86;21098;-64
2021/07/23 12:21:40;;;;;;;9.25;7.50;;;;;;;29.38;43.91;100235.02;2719349;87;21110;-63
2021/07/23 12:25:45;;;;;;;10.40;8.03;;;;;;;29.31;43.71;100233.02;2736089;86;21042;-63
2021/07/23 12:29:46;;;;;;;;;;;;;;;29.14;43.01;100235.23;2738781;87;21039;-64
2021/07/23 12:34:04;;;;;;;10.55;7.92;;;;;;;29.01;43.76;100231.47;2736700;87;20119;-63
2021/07/23 12:38:08;;;;;;;12.55;9.10;;;;;;;29.11;43.55;100231.64;2734649;86;21627;-63
2021/07/23 12:42:24;;;;;;;12.45;7.97;;;;;;;29.09;45.67;100229.69;2736611;87;21588;-63
2021/07/23 12:46:31;;;;;;;11.20;8.18;;;;;;;29.07;45.01;100226.35;2736337;87;21080;-63
2021/07/23 12:50:34;;;;;;;16.93;9.18;;;;;;;29.05;45.43;100228.52;2736386;86;21111;-63
2021/07/23 12:54:51;;;;;;;198.80;44.60;;;;;;;29.06;48.42;100221.43;2736402;87;21027;-63
2021/07/23 12:58:53;;;;;;;11.30;7.60;;;;;;;29.06;48.42;100221.43;2736473;86;21082;-63
2021/07/23 13:02:58;;;;;;;10.95;8.25;;;;;;;29.10;46.30;100220.39;2736699;87;21027;-62
2021/07/23 13:07:04;;;;;;;44.30;19.95;;;;;;;29.23;49.15;100220.58;2736346;87;20988;-64
2021/07/23 13:11:09;;;;;;;134.65;53.08;;;;;;;29.36;47.08;100224.30;2736010;87;20987;-62
2021/07/23 13:15:13;;;;;;;11.45;8.95;;;;;;;29.49;47.80;100214.94;2716942;87;21003;-63
2021/07/23 13:19:15;;;;;;;15.10;9.10;;;;;;;29.76;44.72;100209.20;2733492;87;21067;-63
2021/07/23 13:23:16;;;;;;;10.40;8.03;;;;;;;29.91;44.48;100212.69;2733248;87;21028;-63
2021/07/23 13:27:18;;;;;;;12.37;7.65;;;;;;;30.02;44.36;100206.80;2733246;87;21079;-63
2021/07/23 13:31:22;;;;;;;9.68;7.47;;;;;;;30.02;44.36;100206.80;2733614;87;21089;-63
2021/07/23 13:35:25;;;;;;;16.85;8.40;;;;;;;29.78;42.75;100206.50;2734173;87;21027;-63
2021/07/23 13:39:47;;;;;;;18.75;10.00;;;;;;;29.68;42.56;100205.03;2733724;87;21796;-63
2021/07/23 13:43:49;;;;;;;11.25;8.78;;;;;;;29.66;42.86;100200.32;2733938;87;21099;-64
2021/07/23 13:47:55;;;;;;;13.45;8.40;;;;;;;29.76;43.14;100196.87;2733672;87;21061;-66
2021/07/23 13:51:57;;;;;;;10.15;7.87;;;;;;;29.88;42.93;100194.83;2733946;86;21032;-64
2021/07/23 13:56:01;;;;;;;11.08;7.78;;;;;;;29.93;42.63;100191.32;2733235;87;21103;-65
2021/07/23 14:00:06;;;;;;;17.70;8.50;;;;;;;29.86;42.55;100192.89;2733803;87;21011;-66
2021/07/23 14:04:10;;;;;;;29.35;11.88;;;;;;;29.80;42.49;100182.96;2733402;87;21061;-65
2021/07/23 14:08:12;;;;;;;13.43;8.73;;;;;;;29.79;43.00;100187.59;2734299;87;21061;-61
2021/07/23 14:12:13;;;;;;;12.88;8.13;;;;;;;29.80;43.17;100187.07;2735013;86;21019;-62
2021/07/23 14:16:15;;;;;;;10.80;7.97;;;;;;;29.59;45.53;100181.88;2735104;87;21043;-66
2021/07/23 14:20:17;;;;;;;10.05;8.13;;;;;;;29.27;44.24;100166.10;2734056;87;21111;-64
2021/07/23 14:24:22;;;;;;;9.88;7.85;;;;;;;29.47;43.97;100180.09;2737410;86;21051;-63
2021/07/23 14:28:24;;;;;;;17.62;10.70;;;;;;;29.53;43.89;100171.95;2742499;87;21023;-63
2021/07/23 14:32:26;;;;;;;11.50;8.40;;;;;;;29.49;45.69;100147.81;2741175;87;21055;-63
2021/07/23 14:36:32;;;;;;;10.32;8.48;;;;;;;29.67;44.29;100169.09;2741611;87;21056;-65
2021/07/23 14:40:33;;;;;;;51.08;16.07;;;;;;;29.61;45.20;100176.97;2743931;87;21019;-62
2021/07/23 14:44:36;;;;;;;9.93;8.35;;;;;;;29.61;45.20;100176.97;2744405;87;21008;-62
2021/07/23 14:48:38;;;;;;;38.05;10.75;;;;;;;29.57;43.82;100167.61;2744387;87;20996;-62
2021/07/23 14:52:40;;;;;;;13.72;8.98;;;;;;;29.69;44.84;100175.70;2744124;87;21053;-61
2021/07/23 14:56:43;;;;;;;10.18;8.23;;;;;;;29.71;45.99;100166.67;2744437;87;21032;-61
2021/07/23 15:00:46;;;;;;;14.05;9.13;;;;;;;29.64;44.63;100170.97;2744240;87;21071;-62
2021/07/23 15:04:49;;;;;;;11.40;8.88;;;;;;;29.53;46.69;100164.55;2744956;86;21067;-61
2021/07/23 15:08:50;;;;;;;12.15;9.18;;;;;;;29.39;46.98;100164.08;2745047;87;21052;-62
2021/07/23 15:12:52;;;;;;;11.03;8.35;;;;;;;29.19;44.66;100151.78;2744605;87;21007;-61
2021/07/23 15:16:59;;;;;;;13.70;9.90;;;;;;;29.19;44.66;100151.78;2744573;87;20979;-63
2021/07/23 15:21:02;;;;;;;32.35;12.78;;;;;;;29.19;46.62;100161.92;2744195;87;21107;-63
2021/07/23 15:25:08;;;;;;;13.80;8.50;;;;;;;29.32;47.64;100156.05;2740612;86;21024;-64
2021/07/23 15:29:09;;;;;;;12.65;9.35;;;;;;;29.45;45.18;100149.38;2736837;87;21032;-63
2021/07/23 15:33:11;;;;;;;55.25;13.35;;;;;;;29.67;44.82;100150.46;2736784;87;21055;-62
2021/07/23 15:37:14;;;;;;;9.65;7.80;;;;;;;29.72;44.07;100144.50;2737006;87;21110;-63
2021/07/23 15:41:16;;;;;;;17.90;9.83;;;;;;;29.82;45.12;100149.80;2736770;87;21023;-62
2021/07/23 15:45:20;;;;;;;13.05;8.85;;;;;;;29.84;43.57;100147.62;2736996;86;21079;-64
2021/07/23 15:49:21;;;;;;;12.93;8.60;;;;;;;29.72;44.10;100143.13;2737033;87;21029;-62
2021/07/23 15:53:23;;;;;;;12.33;8.88;;;;;;;29.46;44.83;100142.01;2736781;87;21000;-62
2021/07/23 15:57:26;;;;;;;13.45;10.10;;;;;;;29.20;45.35;100141.11;2736813;87;21071;-63
2021/07/23 16:01:28;;;;;;;11.45;8.40;;;;;;;28.99;45.79;100131.81;2736676;87;21036;-63
2021/07/23 16:05:35;;;;;;;12.15;8.88;;;;;;;28.51;46.46;100123.15;2736699;87;21007;-62
2021/07/23 16:09:38;;;;;;;20.72;9.65;;;;;;;28.51;46.46;100123.15;2736692;87;21020;-61
2021/07/23 16:13:40;;;;;;;12.80;9.00;;;;;;;28.50;47.85;100131.06;2736849;87;20988;-63
2021/07/23 16:17:42;;;;;;;13.95;9.68;;;;;;;28.40;45.29;100100.80;2736679;87;21079;-64
2021/07/23 16:21:44;;;;;;;14.07;10.28;;;;;;;28.64;45.21;100120.60;2736220;87;21067;-63
2021/07/23 16:25:47;;;;;;;13.28;10.25;;;;;;;28.76;45.71;100117.77;2741314;86;21020;-63
2021/07/23 16:29:49;;;;;;;11.03;8.75;;;;;;;28.61;46.63;100117.00;2744474;87;21087;-63
2021/07/23 16:33:50;;;;;;;29.60;11.12;;;;;;;28.61;46.63;100117.00;2744372;87;21011;-61
2021/07/23 16:37:52;;;;;;;11.33;8.73;;;;;;;28.56;47.64;100115.02;2744474;87;21039;-61
2021/07/23 16:41:54;;;;;;;11.78;9.00;;;;;;;28.52;46.32;100116.59;2744274;87;21953;-62
2021/07/23 16:45:57;;;;;;;10.13;9.05;;;;;;;28.51;47.08;100108.91;2744245;87;21007;-63
2021/07/23 16:49:59;;;;;;;12.80;10.20;;;;;;;28.51;47.47;100110.84;2744452;87;21099;-63
2021/07/23 16:54:02;;;;;;;13.32;8.88;;;;;;;28.57;46.39;100118.03;2744349;86;21034;-63
2021/07/23 16:58:04;;;;;;;10.58;9.13;;;;;;;28.57;45.15;100112.56;2744761;87;21058;-63
2021/07/23 17:02:06;;;;;;;13.20;8.60;;;;;;;28.54;45.51;100113.06;2744535;87;21047;-63
2021/07/23 17:06:08;;;;;;;9.93;8.68;;;;;;;28.47;45.63;100109.13;2744428;87;21027;-63
2021/07/23 17:10:14;;;;;;;12.05;9.05;;;;;;;28.35;45.87;100107.86;2744551;87;21027;-62
2021/07/23 17:14:15;;;;;;;33.92;11.83;;;;;;;28.24;46.38;100110.12;2744295;87;21035;-63
2021/07/23 17:18:19;;;;;;;18.05;9.70;;;;;;;28.13;46.09;100105.55;2744482;86;21079;-62
2021/07/23 17:22:21;;;;;;;9.25;7.55;;;;;;;28.01;46.57;100105.06;2744283;87;21079;-63
2021/07/23 17:26:25;;;;;;;10.30;7.00;;;;;;;27.87;46.94;100099.61;2744037;86;21031;-63
2021/07/23 17:30:27;;;;;;;12.60;7.67;;;;;;;27.69;47.59;100098.74;2744197;87;21103;-63
2021/07/23 17:34:30;;;;;;;19.62;9.40;;;;;;;27.53;48.05;100096.27;2743600;87;21569;-63
2021/07/23 17:38:32;;;;;;;17.02;8.95;;;;;;;27.37;48.32;100097.84;2742194;87;21178;-63
2021/07/23 17:42:37;;;;;;;12.35;9.33;;;;;;;27.23;48.96;100099.48;2740932;87;21023;-62
2021/07/23 17:46:40;;;;;;;12.65;8.70;;;;;;;27.11;49.59;100100.03;2740676;86;21039;-62
2021/07/23 17:50:41;;;;;;;17.77;9.25;;;;;;;26.97;51.20;100097.30;2740311;87;21055;-63
2021/07/23 17:54:43;;;;;;;12.55;8.28;;;;;;;26.79;51.11;100094.41;2740885;87;21728;-64
2021/07/23 17:58:45;;;;;;;14.87;8.28;;;;;;;26.70;51.37;100092.28;2740829;87;21031;-62
2021/07/23 18:02:56;;;;;;;18.92;9.78;;;;;;;26.59;51.54;100090.70;2740329;87;21102;-64
2021/07/23 18:06:58;;;;;;;18.20;8.98;;;;;;;26.48;52.10;100092.36;2740379;87;21000;-62
2021/07/23 18:11:00;;;;;;;12.35;8.98;;;;;;;26.37;53.48;100090.45;2740502;87;21075;-63
2021/07/23 18:15:02;;;;;;;16.50;9.98;;;;;;;26.25;53.45;100093.16;2740608;86;21464;-62
2021/07/23 18:19:04;;;;;;;21.95;9.25;;;;;;;26.16;53.07;100097.28;2739414;87;21039;-60
2021/07/23 18:23:05;;;;;;;27.00;10.35;;;;;;;26.06;53.36;100093.22;2739153;87;21062;-62
2021/07/23 18:27:09;;;;;;;19.48;11.08;;;;;;;25.96;54.00;100105.23;2732726;86;21076;-62
2021/07/23 18:31:10;;;;;;;16.62;9.93;;;;;;;25.86;54.20;100107.16;2731628;87;21035;-61
2021/07/23 18:35:13;;;;;;;17.98;9.33;;;;;;;25.73;53.98;100108.16;2730758;87;21055;-62
2021/07/23 18:39:15;;;;;;;18.17;9.53;;;;;;;25.58;53.99;100113.20;2688025;87;21043;-62